Time;durP1;ratioP1;P1;durP2;ratioP2;P2;SDS_P1;SDS_P2;PMS_P1;PMS_P2;Temp;Humidity;BMP_temperature;BMP_pressure;BME280_temperature;BME280_humidity;BME280_pressure;Samples;Min_cycle;Max_cycle;Signal;HPM_P1;HPM_P2
2022/01/08 00:00:45;;;;;;;0.30;0.20;;;-1.90;99.90;;;;;;5070718;28;20197;-85
2022/01/08 00:03:13;;;;;;;0.30;0.10;;;-1.90;99.90;;;;;;5069269;28;20287;-86
2022/01/08 00:05:40;;;;;;;0.30;0.17;;;-1.70;99.90;;;;;;5068855;28;20190;-88
2022/01/08 00:08:07;;;;;;;0.30;0.10;;;-1.70;99.90;;;;;;5066483;28;20197;-85
2022/01/08 00:10:34;;;;;;;0.30;0.10;;;-1.60;99.90;;;;;;5066370;28;20194;-87
2022/01/08 00:13:05;;;;;;;0.30;0.10;;;-1.60;99.90;;;;;;5068830;28;20252;-86
2022/01/08 00:15:32;;;;;;;0.30;0.10;;;-1.70;99.90;;;;;;5069637;28;20199;-85
2022/01/08 00:17:59;;;;;;;0.30;0.20;;;-1.70;99.90;;;;;;5068434;28;20194;-87
2022/01/08 00:20:28;;;;;;;0.30;0.10;;;-1.70;99.90;;;;;;5067821;28;20596;-88
2022/01/08 00:22:56;;;;;;;0.30;0.17;;;-1.70;99.90;;;;;;5069436;28;20226;-85
2022/01/08 00:25:23;;;;;;;0.30;0.10;;;-1.80;99.90;;;;;;5067811;28;20247;-85
2022/01/08 00:27:50;;;;;;;0.30;0.10;;;-1.90;99.90;;;;;;5071759;28;20194;-86
2022/01/08 00:30:17;;;;;;;0.30;0.10;;;-1.90;99.90;;;;;;5070385;28;20664;-85
2022/01/08 00:32:44;;;;;;;0.30;0.20;;;-1.90;99.90;;;;;;5062741;28;20206;-86
2022/01/08 00:35:12;;;;;;;0.30;0.10;;;-1.90;99.90;;;;;;5070107;28;20267;-85
2022/01/08 00:37:41;;;;;;;0.30;0.10;;;-1.80;99.90;;;;;;5072059;28;20206;-85
2022/01/08 00:40:10;;;;;;;0.30;0.10;;;-1.80;99.90;;;;;;5067259;28;20198;-85
2022/01/08 00:42:37;;;;;;;0.30;0.10;;;-1.80;99.90;;;;;;5064896;28;20260;-85
2022/01/08 00:45:05;;;;;;;0.30;0.10;;;-1.90;99.90;;;;;;5070447;28;20200;-86
2022/01/08 00:47:32;;;;;;;0.30;0.10;;;-1.90;99.90;;;;;;5068847;28;20255;-86
2022/01/08 00:49:59;;;;;;;0.30;0.10;;;-1.80;99.90;;;;;;5071718;28;20251;-85
2022/01/08 00:52:27;;;;;;;0.30;0.10;;;-1.90;99.90;;;;;;5070799;28;20721;-86
2022/01/08 00:54:55;;;;;;;0.30;0.10;;;-1.80;99.90;;;;;;5072528;28;20190;-85
2022/01/08 00:57:22;;;;;;;0.30;0.10;;;-1.90;99.90;;;;;;5079129;28;20189;-87
2022/01/08 00:59:49;;;;;;;0.30;0.10;;;-1.80;99.90;;;;;;5095432;28;20179;-85
2022/01/08 01:02:16;;;;;;;0.30;0.10;;;-1.90;99.90;;;;;;5085215;28;20213;-85
2022/01/08 01:04:43;;;;;;;0.30;0.10;;;-1.90;99.90;;;;;;5076824;28;20525;-85
2022/01/08 01:07:10;;;;;;;0.30;0.10;;;-1.80;99.90;;;;;;5068234;28;20200;-85
2022/01/08 01:09:37;;;;;;;0.30;0.10;;;-1.90;99.90;;;;;;5069784;28;20194;-85
2022/01/08 01:12:06;;;;;;;0.30;0.10;;;-1.80;99.90;;;;;;5070292;28;20198;-84
2022/01/08 01:14:33;;;;;;;0.30;0.10;;;-1.90;99.90;;;;;;5068251;28;20613;-86
2022/01/08 01:17:01;;;;;;;0.30;0.10;;;-1.90;99.90;;;;;;5066784;28;20824;-85
2022/01/08 01:19:29;;;;;;;0.30;0.10;;;-1.90;99.90;;;;;;5065679;28;20202;-85
2022/01/08 01:21:58;;;;;;;0.30;0.10;;;-1.80;99.90;;;;;;5070264;28;20230;-86
2022/01/08 01:24:26;;;;;;;0.30;0.10;;;-1.80;99.90;;;;;;5068413;28;20203;-85
2022/01/08 01:27:39;;;;;;;0.30;0.10;;;-1.80;99.90;;;;;;5069877;28;20199;-85
2022/01/08 01:30:12;;;;;;;0.30;0.10;;;-1.70;99.90;;;;;;5070325;28;20199;-85
2022/01/08 01:41:18;;;;;;;0.30;0.10;;;-1.70;99.90;;;;;;5069163;28;20247;-86
2022/01/08 01:47:02;;;;;;;0.30;0.20;;;-1.80;99.90;;;;;;5002713;28;20211;-85
2022/01/08 01:49:31;;;;;;;0.30;0.10;;;-1.80;99.90;;;;;;5067346;28;20194;-85
2022/01/08 01:51:59;;;;;;;0.30;0.20;;;-1.70;99.90;;;;;;5068474;28;20275;-87
2022/01/08 01:54:27;;;;;;;0.30;0.10;;;-1.90;99.90;;;;;;5070122;28;20198;-85
2022/01/08 01:56:55;;;;;;;0.30;0.20;;;-1.90;99.90;;;;;;5066510;28;20636;-86
2022/01/08 01:59:22;;;;;;;0.30;0.10;;;-1.80;99.90;;;;;;5069922;28;20210;-85
2022/01/08 02:01:51;;;;;;;0.30;0.10;;;-1.90;99.90;;;;;;5063113;28;20255;-86
2022/01/08 02:04:18;;;;;;;0.30;0.10;;;-1.90;99.90;;;;;;5066109;28;20198;-86
2022/01/08 02:06:45;;;;;;;0.30;0.17;;;-1.90;99.90;;;;;;5066171;28;20554;-83
2022/01/08 02:09:12;;;;;;;0.30;0.10;;;-2.00;99.90;;;;;;5067008;28;20194;-83
2022/01/08 02:11:57;;;;;;;0.30;0.15;;;-2.00;99.90;;;;;;5067435;28;20243;-82
2022/01/08 02:14:25;;;;;;;0.30;0.10;;;-1.90;99.90;;;;;;5066089;28;20194;-84
2022/01/08 02:16:53;;;;;;;0.30;0.10;;;-2.00;99.90;;;;;;5065838;28;20193;-84
2022/01/08 02:19:20;;;;;;;0.30;0.10;;;-2.10;99.90;;;;;;5066647;28;20198;-85
2022/01/08 02:21:50;;;;;;;0.30;0.10;;;-1.90;99.90;;;;;;5066240;28;20287;-86
2022/01/08 02:24:17;;;;;;;0.30;0.20;;;-2.00;99.90;;;;;;5063550;28;20206;-85
2022/01/08 02:26:44;;;;;;;0.30;0.10;;;-1.90;99.90;;;;;;5070438;28;20199;-87
2022/01/08 02:29:12;;;;;;;0.30;0.10;;;-1.80;99.90;;;;;;5069114;28;20201;-84
2022/01/08 02:31:39;;;;;;;0.30;0.10;;;-1.80;99.90;;;;;;5076381;28;20183;-87
2022/01/08 02:34:06;;;;;;;0.30;0.10;;;-1.70;99.90;;;;;;5092330;28;20227;-86
2022/01/08 02:36:34;;;;;;;0.30;0.10;;;-1.80;99.90;;;;;;5080351;28;20690;-85
2022/01/08 02:39:03;;;;;;;0.30;0.10;;;-1.80;99.90;;;;;;5076413;28;20236;-85
2022/01/08 02:41:30;;;;;;;0.82;0.40;;;-1.80;99.90;;;;;;5062706;28;20280;-85
2022/01/08 02:43:57;;;;;;;0.30;0.10;;;-1.90;99.90;;;;;;5069977;28;20563;-86
2022/01/08 02:46:24;;;;;;;0.50;0.50;;;-1.90;99.90;;;;;;5065348;28;20248;-83
2022/01/08 02:48:51;;;;;;;0.30;0.10;;;-1.90;99.90;;;;;;5065499;28;20706;-85
2022/01/08 02:51:18;;;;;;;0.30;0.10;;;-1.80;99.90;;;;;;5068601;28;20198;-85
2022/01/08 02:53:45;;;;;;;0.30;0.10;;;-1.90;99.90;;;;;;5068537;28;20230;-85
2022/01/08 02:56:13;;;;;;;0.30;0.10;;;-2.00;99.90;;;;;;5064111;28;20268;-86
2022/01/08 02:58:40;;;;;;;0.30;0.10;;;-1.90;99.90;;;;;;5065734;28;20230;-85
2022/01/08 03:01:07;;;;;;;0.30;0.10;;;-1.90;99.90;;;;;;5066955;28;20206;-85
2022/01/08 03:03:34;;;;;;;0.30;0.10;;;-1.70;99.90;;;;;;5059223;28;20693;-85
2022/01/08 03:06:01;;;;;;;0.30;0.20;;;-1.70;99.90;;;;;;5059096;28;20230;-87
2022/01/08 03:08:28;;;;;;;0.30;0.10;;;-1.70;99.90;;;;;;5053946;28;20270;-87
2022/01/08 03:10:55;;;;;;;0.30;0.10;;;-1.70;99.90;;;;;;5063762;28;20206;-84
2022/01/08 03:13:23;;;;;;;0.30;0.10;;;-1.70;99.90;;;;;;5063157;28;21178;-87
2022/01/08 03:15:51;;;;;;;0.30;0.20;;;-1.70;99.90;;;;;;5061923;28;20233;-85
2022/01/08 03:18:18;;;;;;;0.57;0.57;;;-1.80;99.90;;;;;;5066230;28;20227;-86
2022/01/08 03:20:49;;;;;;;0.68;0.68;;;-1.70;99.90;;;;;;5068431;28;20255;-86
2022/01/08 03:23:17;;;;;;;0.30;0.10;;;-1.70;99.90;;;;;;5067147;28;20305;-85
2022/01/08 03:25:45;;;;;;;0.30;0.10;;;-1.70;99.90;;;;;;5065594;28;20198;-85
2022/01/08 03:28:12;;;;;;;0.30;0.10;;;-1.70;99.90;;;;;;5069164;28;20666;-85
2022/01/08 03:30:41;;;;;;;0.30;0.10;;;-1.70;99.90;;;;;;5068620;28;20532;-85
2022/01/08 03:33:08;;;;;;;0.30;0.10;;;-1.80;99.90;;;;;;5066374;28;20286;-86
2022/01/08 03:35:35;;;;;;;0.30;0.10;;;-1.70;99.90;;;;;;5067408;28;20636;-84
2022/01/08 03:38:02;;;;;;;0.40;0.40;;;-1.80;99.90;;;;;;5069726;28;20234;-83
2022/01/08 03:40:29;;;;;;;0.30;0.10;;;-1.80;99.90;;;;;;5069238;28;20556;-82
2022/01/08 03:42:56;;;;;;;0.30;0.10;;;-1.80;99.90;;;;;;5070783;28;20253;-84
2022/01/08 03:45:23;;;;;;;0.50;0.50;;;-1.90;99.90;;;;;;5072129;28;20205;-82
2022/01/08 03:48:16;;;;;;;0.30;0.10;;;-1.80;99.90;;;;;;5065716;28;20645;-84
2022/01/08 03:50:43;;;;;;;0.30;0.10;;;-1.90;99.90;;;;;;5070205;28;20214;-82
2022/01/08 03:53:10;;;;;;;0.30;0.10;;;-1.80;99.90;;;;;;5068719;28;20233;-82
2022/01/08 03:55:37;;;;;;;0.30;0.10;;;-1.80;99.90;;;;;;5067687;28;20227;-82
2022/01/08 03:58:04;;;;;;;0.30;0.10;;;-1.80;99.90;;;;;;5069297;28;20244;-83
2022/01/08 04:00:32;;;;;;;0.30;0.10;;;-1.80;99.90;;;;;;5061811;28;20226;-82
2022/01/08 04:03:00;;;;;;;0.30;0.10;;;-1.80;99.90;;;;;;5070160;28;20308;-81
2022/01/08 04:05:27;;;;;;;0.30;0.10;;;-1.90;99.90;;;;;;5077305;28;20182;-82
2022/01/08 04:07:54;;;;;;;0.30;0.10;;;-1.90;99.90;;;;;;5090398;28;20182;-84
2022/01/08 04:10:21;;;;;;;1.30;0.73;;;-1.80;99.90;;;;;;5084849;28;20206;-83
2022/01/08 04:12:53;;;;;;;0.30;0.10;;;-1.90;99.90;;;;;;5069993;28;20237;-83
2022/01/08 04:15:34;;;;;;;0.30;0.10;;;-1.90;99.90;;;;;;5065319;28;20211;-83
2022/01/08 04:18:02;;;;;;;0.30;0.10;;;-2.00;99.90;;;;;;5068548;28;20199;-83
2022/01/08 04:20:29;;;;;;;0.30;0.20;;;-2.00;99.90;;;;;;5068453;28;20201;-85
2022/01/08 04:22:56;;;;;;;0.30;0.10;;;-1.90;99.90;;;;;;5071202;28;20246;-85
2022/01/08 04:25:24;;;;;;;1.13;0.75;;;-1.90;99.90;;;;;;5062194;28;20266;-84
2022/01/08 04:27:52;;;;;;;0.30;0.10;;;-2.00;99.90;;;;;;5070761;28;20230;-86
2022/01/08 04:30:19;;;;;;;0.30;0.10;;;-2.00;99.90;;;;;;5070140;28;20204;-85
2022/01/08 04:32:47;;;;;;;0.30;0.10;;;-2.00;99.90;;;;;;5067556;28;20801;-85
2022/01/08 04:35:15;;;;;;;1.35;0.73;;;-2.00;99.90;;;;;;5070986;28;20195;-84
2022/01/08 04:37:42;;;;;;;1.85;1.20;;;-2.00;99.90;;;;;;5063379;28;20296;-87
2022/01/08 04:40:10;;;;;;;0.30;0.10;;;-2.00;99.90;;;;;;5070259;28;20591;-85
2022/01/08 04:42:37;;;;;;;0.30;0.10;;;-2.10;99.90;;;;;;5067523;28;20254;-83
2022/01/08 04:45:05;;;;;;;0.30;0.10;;;-2.10;99.90;;;;;;5067216;28;20308;-86
2022/01/08 04:47:32;;;;;;;0.30;0.10;;;-2.10;99.90;;;;;;5070870;28;20250;-83
2022/01/08 04:49:58;;;;;;;0.30;0.10;;;-2.10;99.90;;;;;;5068438;28;20230;-83
2022/01/08 04:52:27;;;;;;;0.30;0.10;;;-2.20;99.90;;;;;;5064793;28;20280;-84
2022/01/08 04:54:54;;;;;;;0.30;0.10;;;-2.20;99.90;;;;;;5071014;28;20636;-84
2022/01/08 04:57:21;;;;;;;0.47;0.47;;;-2.20;99.90;;;;;;5069865;28;20193;-83
2022/01/08 04:59:48;;;;;;;0.30;0.10;;;-2.20;99.90;;;;;;5068495;28;20247;-82
2022/01/08 05:02:15;;;;;;;0.65;0.65;;;-2.30;99.90;;;;;;5068596;28;20247;-83
2022/01/08 05:04:43;;;;;;;0.30;0.10;;;-2.30;99.90;;;;;;5063435;28;20302;-83
2022/01/08 05:07:10;;;;;;;0.30;0.10;;;-2.30;99.90;;;;;;5064769;28;20201;-85
2022/01/08 05:09:38;;;;;;;0.30;0.10;;;-2.20;99.90;;;;;;5064265;28;20545;-84
2022/01/08 05:12:06;;;;;;;0.30;0.10;;;-2.20;99.90;;;;;;5070648;28;20746;-83
2022/01/08 05:14:33;;;;;;;0.30;0.10;;;-2.30;99.90;;;;;;5069466;28;20201;-85
2022/01/08 05:17:01;;;;;;;0.30;0.15;;;-2.30;99.90;;;;;;5067997;28;20592;-84
2022/01/08 05:19:40;;;;;;;0.30;0.10;;;-2.30;99.90;;;;;;5064787;28;20278;-84
2022/01/08 05:22:09;;;;;;;0.63;0.63;;;-2.30;99.90;;;;;;5068356;28;20200;-84
2022/01/08 05:24:38;;;;;;;0.30;0.10;;;-2.40;99.90;;;;;;5069654;28;20225;-86
2022/01/08 05:27:06;;;;;;;0.30;0.10;;;-2.40;99.90;;;;;;5067478;28;20629;-84
2022/01/08 05:29:33;;;;;;;0.52;0.45;;;-2.40;99.90;;;;;;5069609;28;20197;-84
2022/01/08 05:32:00;;;;;;;0.30;0.10;;;-2.50;99.90;;;;;;5062666;28;20710;-84
2022/01/08 05:34:27;;;;;;;0.30;0.10;;;-2.50;99.90;;;;;;5069390;28;20201;-83
2022/01/08 05:36:54;;;;;;;2.25;0.52;;;-2.60;99.90;;;;;;5064057;28;20253;-84
2022/01/08 05:39:21;;;;;;;0.30;0.10;;;-2.60;99.90;;;;;;5075545;28;20211;-84
2022/01/08 05:41:49;;;;;;;0.30;0.10;;;-2.60;99.90;;;;;;5091342;28;20219;-84
2022/01/08 05:44:16;;;;;;;0.30;0.10;;;-2.60;99.90;;;;;;5085281;28;20222;-83
2022/01/08 05:46:46;;;;;;;0.30;0.10;;;-2.70;99.90;;;;;;5077597;28;20207;-83
2022/01/08 05:49:15;;;;;;;0.30;0.10;;;-2.70;99.90;;;;;;5063574;28;20280;-86
2022/01/08 05:51:42;;;;;;;0.30;0.10;;;-2.80;99.90;;;;;;5066966;28;20712;-84
2022/01/08 05:54:08;;;;;;;1.48;1.38;;;-2.80;99.90;;;;;;5066617;28;20201;-84
2022/01/08 05:56:36;;;;;;;0.30;0.10;;;-2.90;99.90;;;;;;5064307;28;20235;-86
2022/01/08 05:59:04;;;;;;;0.30;0.17;;;-3.00;99.90;;;;;;5061268;28;20238;-83
2022/01/08 06:01:34;;;;;;;0.80;0.80;;;-3.20;99.90;;;;;;5061633;28;20251;-84
2022/01/08 06:04:01;;;;;;;0.30;0.10;;;-3.20;99.90;;;;;;5064246;28;20706;-83
2022/01/08 06:06:28;;;;;;;0.30;0.20;;;-3.20;99.90;;;;;;5058399;28;20236;-82
2022/01/08 06:08:55;;;;;;;0.30;0.10;;;-3.30;99.90;;;;;;5078518;28;20312;-82
2022/01/08 06:11:22;;;;;;;0.30;0.10;;;-3.30;99.90;;;;;;5074427;28;20217;-83
2022/01/08 06:13:49;;;;;;;3.70;1.23;;;-3.40;99.90;;;;;;5063841;28;20228;-82
2022/01/08 06:16:18;;;;;;;0.30;0.10;;;-3.40;99.90;;;;;;5077998;28;20203;-81
2022/01/08 06:18:45;;;;;;;0.30;0.10;;;-3.30;99.90;;;;;;5077332;28;20223;-82
2022/01/08 06:21:12;;;;;;;0.30;0.10;;;-3.30;99.90;;;;;;5077171;28;20219;-82
2022/01/08 06:23:39;;;;;;;0.30;0.20;;;-3.40;99.90;;;;;;5057752;28;20222;-83
2022/01/08 06:26:06;;;;;;;0.30;0.10;;;-3.50;99.90;;;;;;5067338;28;20331;-82
2022/01/08 06:28:33;;;;;;;0.40;0.30;;;-3.50;99.90;;;;;;5063812;28;20209;-83
2022/01/08 06:31:00;;;;;;;0.30;0.10;;;-3.60;99.90;;;;;;5055709;28;20559;-82
2022/01/08 06:33:29;;;;;;;0.40;0.25;;;-3.60;99.90;;;;;;5050310;28;20273;-84
2022/01/08 06:35:56;;;;;;;0.40;0.25;;;-3.70;99.90;;;;;;5056217;28;20286;-87
2022/01/08 06:38:23;;;;;;;0.30;0.10;;;-3.70;99.90;;;;;;5072231;28;20201;-83
2022/01/08 06:40:50;;;;;;;0.30;0.15;;;-3.70;99.90;;;;;;5069989;28;20209;-85
2022/01/08 06:43:17;;;;;;;0.30;0.10;;;-3.70;99.90;;;;;;5065603;28;20637;-84
2022/01/08 06:45:44;;;;;;;4.65;1.33;;;-3.70;99.90;;;;;;5063900;28;20640;-85
2022/01/08 06:48:11;;;;;;;0.30;0.10;;;-3.80;99.90;;;;;;5067997;28;20201;-82
2022/01/08 06:50:39;;;;;;;0.30;0.10;;;-3.80;99.90;;;;;;5069078;28;20246;-84
2022/01/08 06:53:06;;;;;;;2.97;1.35;;;-3.80;99.90;;;;;;5063431;28;20649;-84
2022/01/08 06:55:33;;;;;;;0.30;0.10;;;-3.80;99.90;;;;;;5063528;28;20190;-86
2022/01/08 06:58:00;;;;;;;0.30;0.10;;;-3.80;99.90;;;;;;5061330;28;20193;-88
2022/01/08 07:00:29;;;;;;;0.30;0.10;;;-3.70;99.90;;;;;;5066135;28;20198;-84
2022/01/08 07:02:56;;;;;;;0.30;0.10;;;-3.70;99.90;;;;;;5067388;28;20539;-86
2022/01/08 07:05:24;;;;;;;0.30;0.10;;;-3.60;99.90;;;;;;5067903;28;20266;-85
2022/01/08 07:07:53;;;;;;;0.30;0.10;;;-3.60;99.90;;;;;;5065196;28;20589;-88
2022/01/08 07:10:22;;;;;;;0.30;0.10;;;-3.60;99.90;;;;;;5068311;28;20645;-85
2022/01/08 07:12:49;;;;;;;0.30;0.20;;;-3.60;99.90;;;;;;5084687;28;20449;-86
2022/01/08 07:15:16;;;;;;;0.30;0.10;;;-3.50;99.90;;;;;;5091176;28;20182;-82
2022/01/08 07:17:43;;;;;;;0.30;0.20;;;-3.40;99.90;;;;;;5077690;28;20244;-84
2022/01/08 07:20:11;;;;;;;0.30;0.10;;;-3.40;99.90;;;;;;5073929;28;20227;-86
2022/01/08 07:22:38;;;;;;;0.30;0.10;;;-3.30;99.90;;;;;;5071552;28;20259;-85
2022/01/08 07:25:09;;;;;;;0.30;0.22;;;-3.20;99.90;;;;;;5067682;28;20225;-86
2022/01/08 07:27:36;;;;;;;2.03;1.15;;;-3.20;99.90;;;;;;5060010;28;20556;-86
2022/01/08 07:30:05;;;;;;;0.90;0.90;;;-3.30;99.90;;;;;;5051727;28;20707;-83
2022/01/08 07:32:33;;;;;;;0.30;0.10;;;-3.30;99.90;;;;;;5052160;28;20195;-83
2022/01/08 07:35:00;;;;;;;0.73;0.68;;;-3.30;99.90;;;;;;5053585;28;20229;-82
2022/01/08 07:37:27;;;;;;;0.30;0.10;;;-3.20;99.90;;;;;;5063145;28;20606;-82
2022/01/08 07:39:54;;;;;;;0.30;0.10;;;-3.10;99.90;;;;;;5071674;28;20667;-84
2022/01/08 07:42:22;;;;;;;0.30;0.10;;;-3.10;99.90;;;;;;5069695;28;20354;-82
2022/01/08 07:44:49;;;;;;;0.30;0.10;;;-3.20;99.90;;;;;;5059641;28;20267;-82
2022/01/08 07:47:17;;;;;;;0.30;0.15;;;-3.30;99.90;;;;;;5056353;28;20782;-81
2022/01/08 07:49:44;;;;;;;0.30;0.10;;;-3.40;99.90;;;;;;5053219;28;20198;-82
2022/01/08 07:52:11;;;;;;;0.30;0.10;;;-3.60;99.90;;;;;;5054566;28;20272;-85
2022/01/08 07:54:38;;;;;;;0.30;0.10;;;-3.80;99.90;;;;;;5067557;28;20193;-86
2022/01/08 07:57:05;;;;;;;0.30;0.20;;;-3.80;99.90;;;;;;5069714;28;20685;-82
2022/01/08 07:59:34;;;;;;;0.30;0.10;;;-3.80;99.90;;;;;;5068570;28;20193;-83
2022/01/08 08:02:01;;;;;;;0.30;0.10;;;-3.60;99.90;;;;;;5071770;28;20209;-83
2022/01/08 08:04:28;;;;;;;0.30;0.10;;;-3.60;99.90;;;;;;5057958;28;20225;-82
2022/01/08 08:06:55;;;;;;;0.30;0.20;;;-3.40;99.90;;;;;;5072414;28;20609;-82
2022/01/08 08:09:22;;;;;;;0.30;0.10;;;-3.40;99.90;;;;;;5067326;28;20251;-83
2022/01/08 08:11:49;;;;;;;0.30;0.20;;;-3.30;99.90;;;;;;5068756;28;20283;-83
2022/01/08 08:14:16;;;;;;;0.30;0.10;;;-3.30;99.90;;;;;;5052655;28;20256;-82
2022/01/08 08:16:44;;;;;;;0.30;0.10;;;-3.40;99.90;;;;;;5050911;28;20198;-83
2022/01/08 08:19:12;;;;;;;0.30;0.10;;;-3.20;99.90;;;;;;5061050;28;20267;-82
2022/01/08 08:21:39;;;;;;;0.30;0.10;;;-3.20;99.90;;;;;;5071960;28;20206;-85
2022/01/08 08:24:06;;;;;;;0.30;0.10;;;-3.20;99.90;;;;;;5054767;28;20257;-80
2022/01/08 08:26:34;;;;;;;0.30;0.10;;;-3.00;99.90;;;;;;5050135;28;20197;-79
2022/01/08 08:29:01;;;;;;;1.13;0.73;;;-2.90;99.90;;;;;;5052087;28;20234;-76
2022/01/08 08:31:28;;;;;;;0.30;0.10;;;-2.80;99.90;;;;;;5051000;28;20237;-76
2022/01/08 08:33:57;;;;;;;0.30;0.10;;;-2.90;99.90;;;;;;5061404;28;20193;-76
2022/01/08 08:36:23;;;;;;;0.30;0.10;;;-3.10;99.90;;;;;;5071090;28;20283;-76
2022/01/08 08:38:50;;;;;;;0.30;0.10;;;-3.00;99.90;;;;;;5071332;28;20193;-77
2022/01/08 08:41:17;;;;;;;0.30;0.10;;;-3.00;99.90;;;;;;5067665;28;20197;-77
2022/01/08 08:43:44;;;;;;;0.30;0.10;;;-2.80;99.90;;;;;;5067315;28;20221;-78
2022/01/08 08:46:11;;;;;;;0.30;0.10;;;-2.50;99.90;;;;;;5079600;28;20202;-76
2022/01/08 08:48:38;;;;;;;0.30;0.10;;;-2.20;99.90;;;;;;5090629;28;20243;-76
2022/01/08 08:51:07;;;;;;;0.30;0.20;;;-2.20;99.90;;;;;;5068954;28;20266;-78
2022/01/08 08:53:34;;;;;;;0.30;0.30;;;-2.10;99.90;;;;;;5062701;28;20252;-76
2022/01/08 08:56:01;;;;;;;0.45;0.17;;;-2.00;99.90;;;;;;5068355;28;20206;-80
2022/01/08 08:58:28;;;;;;;2.40;1.30;;;-1.80;99.90;;;;;;5061326;28;20200;-80
2022/01/08 09:00:55;;;;;;;0.30;0.20;;;-1.60;99.90;;;;;;5062340;28;20226;-80
2022/01/08 09:03:22;;;;;;;0.30;0.10;;;-1.70;99.90;;;;;;5066405;28;20295;-78
2022/01/08 09:05:49;;;;;;;0.40;0.30;;;-1.80;99.90;;;;;;5059475;28;20254;-78
2022/01/08 09:08:17;;;;;;;0.40;0.30;;;-1.50;99.90;;;;;;5066750;28;20194;-78
2022/01/08 09:10:44;;;;;;;0.30;0.20;;;-1.30;99.90;;;;;;5057761;28;20227;-80
2022/01/08 09:13:11;;;;;;;0.30;0.10;;;-1.30;99.90;;;;;;5050705;28;20252;-82
2022/01/08 09:15:41;;;;;;;0.40;0.30;;;-1.30;99.90;;;;;;5051757;28;20201;-78
2022/01/08 09:18:09;;;;;;;0.30;0.10;;;-1.10;99.90;;;;;;5062745;28;20259;-80
2022/01/08 09:20:37;;;;;;;0.30;0.10;;;-0.50;99.90;;;;;;5070680;28;20195;-82
2022/01/08 09:23:05;;;;;;;0.30;0.10;;;-0.20;99.90;;;;;;5064189;28;20258;-81
2022/01/08 09:25:34;;;;;;;1.52;1.42;;;-0.10;99.90;;;;;;5065490;28;20289;-80
2022/01/08 09:28:01;;;;;;;0.30;0.10;;;0.00;99.90;;;;;;5062840;28;20231;-81
2022/01/08 09:30:28;;;;;;;0.30;0.10;;;-0.10;99.90;;;;;;5063623;28;20254;-78
2022/01/08 09:32:55;;;;;;;0.32;0.20;;;-0.50;99.90;;;;;;5067776;28;20597;-78
2022/01/08 09:35:25;;;;;;;0.30;0.10;;;-0.50;99.90;;;;;;5062017;28;20608;-78
2022/01/08 09:37:53;;;;;;;1.15;1.10;;;-0.50;99.90;;;;;;5064773;28;20197;-80
2022/01/08 09:40:21;;;;;;;0.47;0.47;;;-0.50;99.90;;;;;;5069627;28;20539;-80
2022/01/08 09:42:51;;;;;;;0.30;0.10;;;-0.10;99.90;;;;;;5064930;28;20664;-80
2022/01/08 09:45:18;;;;;;;0.30;0.10;;;0.00;99.90;;;;;;5070677;28;20228;-80
2022/01/08 09:47:45;;;;;;;0.30;0.10;;;0.00;99.90;;;;;;5070026;28;20203;-87
2022/01/08 09:50:13;;;;;;;0.30;0.10;;;-0.30;99.90;;;;;;5066922;28;20767;-88
2022/01/08 09:52:40;;;;;;;0.30;0.20;;;-0.40;99.90;;;;;;5058132;28;20187;-87
2022/01/08 09:55:08;;;;;;;0.30;0.20;;;-0.40;99.90;;;;;;5064575;28;20236;-91
2022/01/08 09:57:35;;;;;;;0.40;0.20;;;-0.40;99.90;;;;;;5065276;28;20194;-87
2022/01/08 10:00:11;;;;;;;0.30;0.10;;;-0.60;99.90;;;;;;5057565;28;20222;-88
2022/01/08 10:02:38;;;;;;;0.30;0.10;;;-0.50;99.90;;;;;;5049230;28;20244;-87
2022/01/08 10:05:09;;;;;;;0.77;0.77;;;-0.70;99.90;;;;;;5049727;28;20213;-88
2022/01/08 10:07:36;;;;;;;0.30;0.20;;;-0.80;99.90;;;;;;5050747;28;20272;-88
2022/01/08 10:10:12;;;;;;;0.30;0.10;;;-0.90;99.90;;;;;;5058527;28;20202;-88
2022/01/08 10:12:43;;;;;;;0.30;0.10;;;-0.80;99.90;;;;;;5063560;28;20552;-88
2022/01/08 10:17:58;;;;;;;0.30;0.20;;;-0.80;99.90;;;;;;5051709;28;20209;-88
2022/01/08 10:20:33;;;;;;;0.30;0.10;;;-0.80;99.90;;;;;;5082793;28;20190;-88
2022/01/08 10:23:27;;;;;;;0.40;0.40;;;-0.80;99.90;;;;;;5087266;28;20569;-87
2022/01/08 10:26:00;;;;;;;0.30;0.10;;;-0.80;99.90;;;;;;5066333;28;20210;-87
2022/01/08 10:28:35;;;;;;;0.30;0.10;;;-0.60;99.90;;;;;;5074939;28;20342;-88
2022/01/08 10:31:12;;;;;;;0.30;0.10;;;-0.70;99.90;;;;;;5067702;28;20474;-90
2022/01/08 10:33:40;;;;;;;0.30;0.10;;;-0.60;99.90;;;;;;5054058;28;20194;-88
2022/01/08 10:36:07;;;;;;;2.63;1.00;;;-0.50;99.90;;;;;;5061106;28;20261;-84
2022/01/08 10:38:34;;;;;;;0.30;0.10;;;-0.40;99.90;;;;;;5049670;28;20202;-89
2022/01/08 10:41:03;;;;;;;0.30;0.10;;;-0.40;99.90;;;;;;5050341;28;20254;-90
2022/01/08 10:43:32;;;;;;;5.60;2.15;;;-0.40;99.90;;;;;;5058306;28;20273;-90
2022/01/08 10:46:18;;;;;;;0.30;0.10;;;-0.40;99.90;;;;;;5052176;28;20444;-94
2022/01/08 10:48:47;;;;;;;0.85;0.85;;;-0.20;99.90;;;;;;5051158;28;20214;-87
2022/01/08 10:51:19;;;;;;;0.30;0.10;;;-0.20;99.90;;;;;;5058056;28;20233;-86
2022/01/08 10:54:05;;;;;;;0.40;0.30;;;-0.10;99.90;;;;;;5049952;28;20202;-87
2022/01/08 10:56:35;;;;;;;0.30;0.10;;;-0.10;99.90;;;;;;5049497;28;20649;-87
2022/01/08 10:59:06;;;;;;;0.30;0.10;;;-0.10;99.90;;;;;;5049800;28;20262;-87
2022/01/08 11:01:42;;;;;;;0.30;0.20;;;-0.20;99.90;;;;;;5059966;28;20221;-86
2022/01/08 11:04:11;;;;;;;0.30;0.10;;;0.00;99.90;;;;;;5068292;28;20234;-86
2022/01/08 11:06:57;;;;;;;0.30;0.10;;;0.10;99.90;;;;;;5066367;28;20702;-88
2022/01/08 11:09:26;;;;;;;0.30;0.17;;;0.20;99.90;;;;;;5051320;28;20602;-89
2022/01/08 11:11:54;;;;;;;0.30;0.15;;;0.10;99.90;;;;;;5049316;28;20587;-87
2022/01/08 11:17:07;;;;;;;0.30;0.10;;;0.30;99.90;;;;;;5056763;28;20570;-85
2022/01/08 11:19:37;;;;;;;0.93;0.85;;;0.30;99.90;;;;;;5058534;28;20296;-86
2022/01/08 11:22:08;;;;;;;0.40;0.20;;;0.50;99.90;;;;;;5049016;28;20266;-87
2022/01/08 11:24:36;;;;;;;0.30;0.10;;;0.40;99.90;;;;;;5048393;28;20518;-87
2022/01/08 11:27:03;;;;;;;0.30;0.10;;;0.80;99.90;;;;;;5055296;28;20277;-86
2022/01/08 11:29:32;;;;;;;0.30;0.20;;;1.00;99.90;;;;;;5054741;28;20600;-87
2022/01/08 11:32:03;;;;;;;0.30;0.20;;;1.10;99.90;;;;;;5051475;28;20457;-87
2022/01/08 11:34:33;;;;;;;0.30;0.10;;;1.30;99.90;;;;;;5051272;28;20224;-86
2022/01/08 11:37:00;;;;;;;0.30;0.20;;;1.60;99.90;;;;;;5049556;28;20487;-87
2022/01/08 11:39:28;;;;;;;0.30;0.10;;;1.90;99.90;;;;;;5059994;28;21125;-86
2022/01/08 11:41:57;;;;;;;0.30;0.10;;;2.00;99.90;;;;;;5057358;28;20483;-86
2022/01/08 11:44:26;;;;;;;0.30;0.10;;;1.90;99.90;;;;;;5063849;28;20456;-88
2022/01/08 11:46:54;;;;;;;0.30;0.20;;;1.90;99.90;;;;;;5048762;28;20526;-87
2022/01/08 11:49:22;;;;;;;0.63;0.63;;;1.80;99.90;;;;;;5048524;28;20960;-87
2022/01/08 11:52:14;;;;;;;0.40;0.20;;;1.80;99.90;;;;;;5062940;28;20462;-86
2022/01/08 11:54:45;;;;;;;0.30;0.10;;;1.80;99.90;;;;;;5080201;28;20451;-88
2022/01/08 11:57:17;;;;;;;0.30;0.10;;;1.70;99.90;;;;;;5073956;28;20488;-86
2022/01/08 11:59:45;;;;;;;0.30;0.10;;;1.70;99.90;;;;;;5072507;28;20495;-87
2022/01/08 12:02:14;;;;;;;0.30;0.10;;;1.70;99.90;;;;;;5067784;28;20499;-87
2022/01/08 12:04:42;;;;;;;0.30;0.10;;;1.50;99.90;;;;;;5054420;28;20455;-86
2022/01/08 12:07:32;;;;;;;0.30;0.20;;;1.30;99.90;;;;;;5062318;28;20518;-86
2022/01/08 12:10:19;;;;;;;0.30;0.10;;;1.20;99.90;;;;;;5060827;28;20200;-86
2022/01/08 12:12:52;;;;;;;0.40;0.37;;;1.10;99.90;;;;;;5063124;28;20442;-87
2022/01/08 12:15:46;;;;;;;0.30;0.10;;;1.10;99.90;;;;;;5071902;28;20872;-86
2022/01/08 12:18:15;;;;;;;0.33;0.17;;;1.20;99.90;;;;;;5074685;28;20443;-88
2022/01/08 12:20:44;;;;;;;0.30;0.10;;;1.20;99.90;;;;;;5091868;28;20537;-87
2022/01/08 12:23:34;;;;;;;0.30;0.10;;;1.30;99.90;;;;;;5092973;28;20450;-87
2022/01/08 12:26:04;;;;;;;0.30;0.20;;;1.40;99.90;;;;;;5064769;28;20498;-86
2022/01/08 12:28:53;;;;;;;0.30;0.10;;;1.20;99.90;;;;;;5069987;28;20766;-87
2022/01/08 12:31:29;;;;;;;0.30;0.10;;;0.90;99.90;;;;;;5071720;28;20695;-86
2022/01/08 12:34:24;;;;;;;0.30;0.10;;;0.80;99.90;;;;;;5061634;28;20954;-86
2022/01/08 12:36:52;;;;;;;0.30;0.10;;;0.70;99.90;;;;;;5070992;28;20485;-88
2022/01/08 12:39:26;;;;;;;0.30;0.10;;;0.80;99.90;;;;;;5060753;28;21132;-87
2022/01/08 12:42:22;;;;;;;0.30;0.10;;;0.90;99.90;;;;;;5051259;28;20688;-88
2022/01/08 12:44:59;;;;;;;0.30;0.10;;;1.00;99.90;;;;;;5051814;28;20201;-87
2022/01/08 12:47:40;;;;;;;0.30;0.10;;;1.20;99.90;;;;;;5067658;28;20511;-87
2022/01/08 12:50:27;;;;;;;0.30;0.10;;;1.10;99.90;;;;;;5069418;28;20261;-87
2022/01/08 12:53:14;;;;;;;0.30;0.10;;;1.10;99.90;;;;;;5065604;28;20216;-88
2022/01/08 12:55:44;;;;;;;0.30;0.10;;;1.20;99.90;;;;;;5065686;28;20202;-87
2022/01/08 12:58:16;;;;;;;0.30;0.10;;;1.30;99.90;;;;;;5067969;28;20443;-88
2022/01/08 13:00:56;;;;;;;0.30;0.20;;;1.40;99.90;;;;;;5060591;28;20506;-87
2022/01/08 13:03:24;;;;;;;0.30;0.10;;;1.40;99.90;;;;;;5049808;28;20211;-87
2022/01/08 13:05:51;;;;;;;0.30;0.10;;;1.40;99.90;;;;;;5062823;28;20487;-87
2022/01/08 13:08:24;;;;;;;0.30;0.10;;;1.40;99.90;;;;;;5058790;28;20532;-87
2022/01/08 13:11:00;;;;;;;0.30;0.10;;;1.50;99.90;;;;;;5067276;28;20215;-84
2022/01/08 13:13:27;;;;;;;0.40;0.33;;;1.50;99.90;;;;;;5071163;28;20501;-85
2022/01/08 13:15:55;;;;;;;0.30;0.10;;;1.60;99.90;;;;;;5061709;28;20493;-85